Barcelona, Španija

11:53 PM CEST on september 19, 2014 (GMT +0200)
Viladecans | Change Station
CLOSE
Current Station
Osebne vremenske postaje
Location: Viladecans, Barcelona
Višina: 130 ft
Nearby Weather Stations

Viš 130 ft 41.31 °N, 2.00 °E | Updated 19 minutes ago

Scattered Clouds
Razprseni oblaki
72.9 °F
Feels Like 71 °F
N
0.0
Veter Spremenljivo Veter od ZSZ
Gusts 0.0 mph

Danes
High -- | Low -- °F
--% Chance of Precip.
Yesterday
High -- | Low -- °F
Precip. -- v
7:35 AM 7:54 PM
Pojemajoči krajec, 16% visible
Zračni tlak 29.95 v
Vidljivost 6.2 milje
Oblaki Razprseni oblaki 2000 ft
Toplotni indeks 71 °F
Rosišče 69 °F
Vlažnost 88%
Padavine 0.00 v
Snow Depth Not available.
UV 0 out of 12
Pollen Not available.
Air Quality Not available.
Flu Activity Not available.
METAR LEBL 192130Z 23005KT 9999 SCT020 24/22 Q1014 NOSIG

More Conditions Fewer Conditions

Zračni tlak 29.95 v
Vidljivost 6.2 milje
Oblaki Razprseni oblaki 2000 ft
Toplotni indeks 71 °F
Rosišče 69 °F
Vlažnost 88%
Padavine 0.00 v
Snow Depth Not available.
UV 0 out of 12
Pollen Not available.
Air Quality Not available.
Flu Activity Not available.
METAR LEBL 192130Z 23005KT 9999 SCT020 24/22 Q1014 NOSIG

More Conditions Fewer Conditions

10-Day Weather Forecast

Almanac

Astronomija

Sep. 19, 2014 Rise Set
Actual Time 7:35 AM CEST 7:54 PM CEST
Civil Twilight 7:08 AM CEST 8:22 PM CEST
Nautical Twilight 6:35 AM CEST 8:54 PM CEST
Astronomical Twilight 6:02 AM CEST 9:27 PM CEST
Moon 3:05 AM CEST 5:15 PM CEST
Length Of Visible Light 13h 13m
Dolžina dneva
12h 18m
Tomorrow will be 2m 43s shorter.
Pojemajoči krajec, 16% of the Moon is Illuminated
Danes
Pojemajoči krajec
Sep 24
New
Oct 1
Prvo četrtletje
Oct 8
Polna luna (ščip)
Oct 15
Zadnji krajec

Današnji ekstremi

Country Highs Country Lows

Community

WunderPhotos

Upload Photos

1,754,703 photos uploaded!

WunderBlogs® & News

By Dr. Jeff Masters
Director of Meteorology, Weather Underground
By Kari Strenfel
Meteorologist, Weather Underground
By Christopher C. Burt
Weather Historian, Weather Underground
September 19, 2014
September 19, 2014
September 19, 2014

Nearby

Snow Depth

Not available.

Earthquake Activity

City Distance Mag. Time & Date
No recent earthquake activity has been reported nearby.
Minimum magnitude displayed is 2.5.

Coastal Water Temperatures

Mesto Temperatura
No Stations Reporting

Nearby Weather Stations